sensor_id;sensor_type;location;lat;lon;timestamp;temperature;humidity
25438;DHT22;13364;49.084;9.978;2023-12-14T05:01:49;6.50;100.00
25438;DHT22;13364;49.084;9.978;2023-12-14T05:04:16;6.40;100.00
25438;DHT22;13364;49.084;9.978;2023-12-14T05:06:43;6.40;100.00
25438;DHT22;13364;49.084;9.978;2023-12-14T05:09:10;6.40;100.00
25438;DHT22;13364;49.084;9.978;2023-12-14T05:11:39;6.40;100.00
25438;DHT22;13364;49.084;9.978;2023-12-14T05:14:06;6.40;100.00
25438;DHT22;13364;49.084;9.978;2023-12-14T05:16:33;6.40;100.00
25438;DHT22;13364;49.084;9.978;2023-12-14T05:19:00;6.40;100.00
25438;DHT22;13364;49.084;9.978;2023-12-14T05:21:27;6.50;100.00
25438;DHT22;13364;49.084;9.978;2023-12-14T05:23:53;6.50;100.00
25438;DHT22;13364;49.084;9.978;2023-12-14T05:26:20;6.50;100.00
25438;DHT22;13364;49.084;9.978;2023-12-14T05:28:47;6.40;100.00
25438;DHT22;13364;49.084;9.978;2023-12-14T05:31:14;6.40;100.00
25438;DHT22;13364;49.084;9.978;2023-12-14T05:33:41;6.40;100.00
25438;DHT22;13364;49.084;9.978;2023-12-14T05:36:08;6.50;100.00
25438;DHT22;13364;49.084;9.978;2023-12-14T05:38:40;6.50;100.00
25438;DHT22;13364;49.084;9.978;2023-12-14T05:41:07;6.50;100.00
25438;DHT22;13364;49.084;9.978;2023-12-14T05:43:34;6.40;100.00
25438;DHT22;13364;49.084;9.978;2023-12-14T05:46:01;6.40;100.00
25438;DHT22;13364;49.084;9.978;2023-12-14T05:48:27;6.40;100.00
25438;DHT22;13364;49.084;9.978;2023-12-14T05:50:56;6.30;100.00
25438;DHT22;13364;49.084;9.978;2023-12-14T05:53:23;6.30;100.00
25438;DHT22;13364;49.084;9.978;2023-12-14T05:55:50;6.40;100.00
25438;DHT22;13364;49.084;9.978;2023-12-14T05:58:17;6.40;100.00
25438;DHT22;13364;49.084;9.978;2023-12-14T06:00:45;6.50;100.00
25438;DHT22;13364;49.084;9.978;2023-12-14T06:03:11;6.50;100.00
25438;DHT22;13364;49.084;9.978;2023-12-14T06:05:38;6.50;100.00
25438;DHT22;13364;49.084;9.978;2023-12-14T06:08:05;6.50;100.00
25438;DHT22;13364;49.084;9.978;2023-12-14T06:10:32;6.50;100.00
25438;DHT22;13364;49.084;9.978;2023-12-14T06:12:59;6.60;100.00
25438;DHT22;13364;49.084;9.978;2023-12-14T06:15:25;6.70;100.00
25438;DHT22;13364;49.084;9.978;2023-12-14T06:17:52;6.70;100.00
25438;DHT22;13364;49.084;9.978;2023-12-14T06:20:19;6.70;100.00
25438;DHT22;13364;49.084;9.978;2023-12-14T06:22:46;6.60;100.00
25438;DHT22;13364;49.084;9.978;2023-12-14T06:25:13;6.60;100.00
25438;DHT22;13364;49.084;9.978;2023-12-14T06:27:41;6.60;100.00
25438;DHT22;13364;49.084;9.978;2023-12-14T06:30:08;6.60;100.00
25438;DHT22;13364;49.084;9.978;2023-12-14T06:32:36;6.60;100.00
25438;DHT22;13364;49.084;9.978;2023-12-14T06:35:04;6.60;100.00
25438;DHT22;13364;49.084;9.978;2023-12-14T06:37:31;6.70;100.00
25438;DHT22;13364;49.084;9.978;2023-12-14T06:39:58;6.70;100.00
25438;DHT22;13364;49.084;9.978;2023-12-14T06:42:27;6.70;100.00
25438;DHT22;13364;49.084;9.978;2023-12-14T06:44:54;6.70;100.00
25438;DHT22;13364;49.084;9.978;2023-12-14T06:47:21;6.60;100.00
25438;DHT22;13364;49.084;9.978;2023-12-14T06:49:48;6.60;100.00
25438;DHT22;13364;49.084;9.978;2023-12-14T06:52:15;6.60;100.00
25438;DHT22;13364;49.084;9.978;2023-12-14T06:54:41;6.50;100.00
25438;DHT22;13364;49.084;9.978;2023-12-14T06:57:08;6.50;100.00
25438;DHT22;13364;49.084;9.978;2023-12-14T06:59:35;6.50;100.00
25438;DHT22;13364;49.084;9.978;2023-12-14T07:02:02;6.50;100.00
25438;DHT22;13364;49.084;9.978;2023-12-14T07:04:29;6.60;100.00
25438;DHT22;13364;49.084;9.978;2023-12-14T07:06:56;6.60;100.00
25438;DHT22;13364;49.084;9.978;2023-12-14T07:09:22;6.60;100.00
25438;DHT22;13364;49.084;9.978;2023-12-14T07:11:50;6.60;100.00
25438;DHT22;13364;49.084;9.978;2023-12-14T07:14:16;6.60;100.00
25438;DHT22;13364;49.084;9.978;2023-12-14T07:16:43;6.60;100.00
25438;DHT22;13364;49.084;9.978;2023-12-14T07:19:11;6.60;100.00
25438;DHT22;13364;49.084;9.978;2023-12-14T07:21:38;6.70;100.00
25438;DHT22;13364;49.084;9.978;2023-12-14T07:24:05;6.70;100.00
25438;DHT22;13364;49.084;9.978;2023-12-14T07:26:32;6.70;100.00
25438;DHT22;13364;49.084;9.978;2023-12-14T07:28:59;6.70;100.00
25438;DHT22;13364;49.084;9.978;2023-12-14T07:31:26;6.80;100.00
25438;DHT22;13364;49.084;9.978;2023-12-14T07:33:56;6.80;100.00
25438;DHT22;13364;49.084;9.978;2023-12-14T07:36:23;6.80;100.00
25438;DHT22;13364;49.084;9.978;2023-12-14T07:38:50;6.80;100.00
25438;DHT22;13364;49.084;9.978;2023-12-14T07:41:21;6.80;100.00
25438;DHT22;13364;49.084;9.978;2023-12-14T07:43:53;6.80;100.00
25438;DHT22;13364;49.084;9.978;2023-12-14T07:46:21;6.80;100.00
25438;DHT22;13364;49.084;9.978;2023-12-14T07:48:48;6.80;100.00
25438;DHT22;13364;49.084;9.978;2023-12-14T07:51:16;6.80;100.00
25438;DHT22;13364;49.084;9.978;2023-12-14T07:53:44;6.80;100.00
25438;DHT22;13364;49.084;9.978;2023-12-14T07:56:13;6.80;100.00
25438;DHT22;13364;49.084;9.978;2023-12-14T07:58:40;6.80;100.00
25438;DHT22;13364;49.084;9.978;2023-12-14T08:01:07;6.80;100.00
25438;DHT22;13364;49.084;9.978;2023-12-14T08:03:35;6.80;100.00
25438;DHT22;13364;49.084;9.978;2023-12-14T08:06:02;6.80;100.00
25438;DHT22;13364;49.084;9.978;2023-12-14T08:08:29;6.90;100.00
25438;DHT22;13364;49.084;9.978;2023-12-14T08:10:56;6.90;100.00
25438;DHT22;13364;49.084;9.978;2023-12-14T08:13:23;6.90;100.00
25438;DHT22;13364;49.084;9.978;2023-12-14T08:15:50;6.80;100.00
25438;DHT22;13364;49.084;9.978;2023-12-14T08:18:17;6.80;100.00
25438;DHT22;13364;49.084;9.978;2023-12-14T08:20:44;6.80;100.00
25438;DHT22;13364;49.084;9.978;2023-12-14T08:23:11;6.80;100.00
25438;DHT22;13364;49.084;9.978;2023-12-14T08:25:37;6.80;100.00
25438;DHT22;13364;49.084;9.978;2023-12-14T08:28:04;6.80;100.00
25438;DHT22;13364;49.084;9.978;2023-12-14T08:30:31;6.90;100.00
25438;DHT22;13364;49.084;9.978;2023-12-14T08:32:58;6.90;100.00
25438;DHT22;13364;49.084;9.978;2023-12-14T08:35:25;7.00;100.00
25438;DHT22;13364;49.084;9.978;2023-12-14T08:37:52;6.90;100.00
25438;DHT22;13364;49.084;9.978;2023-12-14T08:40:18;7.00;100.00
25438;DHT22;13364;49.084;9.978;2023-12-14T08:42:47;7.00;100.00
25438;DHT22;13364;49.084;9.978;2023-12-14T08:45:14;7.00;100.00
25438;DHT22;13364;49.084;9.978;2023-12-14T08:47:40;7.00;100.00
25438;DHT22;13364;49.084;9.978;2023-12-14T08:50:07;7.00;100.00
25438;DHT22;13364;49.084;9.978;2023-12-14T08:52:35;7.10;100.00
25438;DHT22;13364;49.084;9.978;2023-12-14T08:55:02;7.10;100.00
25438;DHT22;13364;49.084;9.978;2023-12-14T08:57:29;7.10;100.00
25438;DHT22;13364;49.084;9.978;2023-12-14T08:59:57;7.20;100.00
25438;DHT22;13364;49.084;9.978;2023-12-14T09:02:24;7.20;100.00
25438;DHT22;13364;49.084;9.978;2023-12-14T09:04:51;7.20;100.00
25438;DHT22;13364;49.084;9.978;2023-12-14T09:07:18;7.30;100.00
25438;DHT22;13364;49.084;9.978;2023-12-14T09:09:45;7.30;100.00
25438;DHT22;13364;49.084;9.978;2023-12-14T09:12:12;7.30;100.00
25438;DHT22;13364;49.084;9.978;2023-12-14T09:14:39;7.20;100.00
25438;DHT22;13364;49.084;9.978;2023-12-14T09:17:05;7.20;100.00
25438;DHT22;13364;49.084;9.978;2023-12-14T09:19:32;7.20;100.00
25438;DHT22;13364;49.084;9.978;2023-12-14T09:21:59;7.20;100.00
25438;DHT22;13364;49.084;9.978;2023-12-14T09:24:26;7.30;100.00
25438;DHT22;13364;49.084;9.978;2023-12-14T09:26:53;7.30;100.00
25438;DHT22;13364;49.084;9.978;2023-12-14T09:29:19;7.40;100.00
25438;DHT22;13364;49.084;9.978;2023-12-14T09:31:46;7.40;100.00
25438;DHT22;13364;49.084;9.978;2023-12-14T09:34:13;7.50;100.00
25438;DHT22;13364;49.084;9.978;2023-12-14T09:36:40;7.50;100.00
25438;DHT22;13364;49.084;9.978;2023-12-14T09:39:07;7.50;100.00
25438;DHT22;13364;49.084;9.978;2023-12-14T09:41:37;7.50;100.00
25438;DHT22;13364;49.084;9.978;2023-12-14T09:44:05;7.50;100.00
25438;DHT22;13364;49.084;9.978;2023-12-14T09:46:34;7.50;100.00
25438;DHT22;13364;49.084;9.978;2023-12-14T09:49:03;7.50;100.00
25438;DHT22;13364;49.084;9.978;2023-12-14T09:51:32;7.50;100.00
25438;DHT22;13364;49.084;9.978;2023-12-14T09:53:58;7.60;100.00
25438;DHT22;13364;49.084;9.978;2023-12-14T09:56:26;7.60;100.00
25438;DHT22;13364;49.084;9.978;2023-12-14T09:58:53;7.60;100.00
25438;DHT22;13364;49.084;9.978;2023-12-14T10:01:24;7.50;100.00
25438;DHT22;13364;49.084;9.978;2023-12-14T10:04:10;7.60;100.00
25438;DHT22;13364;49.084;9.978;2023-12-14T10:06:38;7.60;100.00
25438;DHT22;13364;49.084;9.978;2023-12-14T10:09:06;7.70;100.00
25438;DHT22;13364;49.084;9.978;2023-12-14T10:11:36;7.80;100.00
25438;DHT22;13364;49.084;9.978;2023-12-14T10:14:10;7.70;100.00
25438;DHT22;13364;49.084;9.978;2023-12-14T10:16:44;7.70;100.00
25438;DHT22;13364;49.084;9.978;2023-12-14T10:19:10;7.70;100.00
25438;DHT22;13364;49.084;9.978;2023-12-14T10:21:37;7.60;100.00
25438;DHT22;13364;49.084;9.978;2023-12-14T10:24:05;7.70;100.00
25438;DHT22;13364;49.084;9.978;2023-12-14T10:26:32;7.70;100.00
25438;DHT22;13364;49.084;9.978;2023-12-14T10:28:59;7.60;100.00
25438;DHT22;13364;49.084;9.978;2023-12-14T10:31:26;7.60;100.00
25438;DHT22;13364;49.084;9.978;2023-12-14T10:33:54;7.70;100.00
25438;DHT22;13364;49.084;9.978;2023-12-14T10:36:25;7.80;100.00
25438;DHT22;13364;49.084;9.978;2023-12-14T10:38:52;7.80;100.00
25438;DHT22;13364;49.084;9.978;2023-12-14T10:41:21;7.80;100.00
25438;DHT22;13364;49.084;9.978;2023-12-14T10:43:55;7.80;100.00
25438;DHT22;13364;49.084;9.978;2023-12-14T10:46:42;7.80;100.00
25438;DHT22;13364;49.084;9.978;2023-12-14T10:49:10;7.80;100.00
25438;DHT22;13364;49.084;9.978;2023-12-14T10:51:37;7.80;100.00
25438;DHT22;13364;49.084;9.978;2023-12-14T10:54:10;7.80;100.00
25438;DHT22;13364;49.084;9.978;2023-12-14T10:56:37;7.80;100.00
25438;DHT22;13364;49.084;9.978;2023-12-14T10:59:04;7.80;100.00
25438;DHT22;13364;49.084;9.978;2023-12-14T11:01:33;7.80;100.00
25438;DHT22;13364;49.084;9.978;2023-12-14T11:04:01;7.80;100.00
25438;DHT22;13364;49.084;9.978;2023-12-14T11:06:33;7.80;100.00
25438;DHT22;13364;49.084;9.978;2023-12-14T11:09:05;7.90;100.00
25438;DHT22;13364;49.084;9.978;2023-12-14T11:11:41;7.90;100.00
25438;DHT22;13364;49.084;9.978;2023-12-14T11:14:11;7.90;100.00
25438;DHT22;13364;49.084;9.978;2023-12-14T11:16:39;8.00;100.00
25438;DHT22;13364;49.084;9.978;2023-12-14T11:24:31;8.00;100.00
25438;DHT22;13364;49.084;9.978;2023-12-14T11:26:57;8.00;100.00
25438;DHT22;13364;49.084;9.978;2023-12-14T11:29:26;8.00;100.00
25438;DHT22;13364;49.084;9.978;2023-12-14T11:31:53;7.90;100.00
25438;DHT22;13364;49.084;9.978;2023-12-14T11:34:20;7.90;100.00
25438;DHT22;13364;49.084;9.978;2023-12-14T11:36:50;8.00;100.00
25438;DHT22;13364;49.084;9.978;2023-12-14T11:39:17;8.10;100.00
25438;DHT22;13364;49.084;9.978;2023-12-14T11:41:59;8.10;100.00
25438;DHT22;13364;49.084;9.978;2023-12-14T11:44:25;8.20;100.00
25438;DHT22;13364;49.084;9.978;2023-12-14T11:46:52;8.20;100.00
25438;DHT22;13364;49.084;9.978;2023-12-14T11:49:19;8.20;100.00
25438;DHT22;13364;49.084;9.978;2023-12-14T11:51:46;8.20;100.00
25438;DHT22;13364;49.084;9.978;2023-12-14T11:54:13;8.20;100.00
25438;DHT22;13364;49.084;9.978;2023-12-14T11:56:48;8.40;100.00
25438;DHT22;13364;49.084;9.978;2023-12-14T11:59:16;8.40;100.00
25438;DHT22;13364;49.084;9.978;2023-12-14T12:02:22;8.40;100.00
25438;DHT22;13364;49.084;9.978;2023-12-14T12:04:50;8.40;100.00
25438;DHT22;13364;49.084;9.978;2023-12-14T12:07:18;8.40;100.00
25438;DHT22;13364;49.084;9.978;2023-12-14T12:09:45;8.30;98.90
25438;DHT22;13364;49.084;9.978;2023-12-14T12:12:13;8.20;99.70
25438;DHT22;13364;49.084;9.978;2023-12-14T12:14:40;8.10;99.20
25438;DHT22;13364;49.084;9.978;2023-12-14T12:17:08;8.10;100.00
25438;DHT22;13364;49.084;9.978;2023-12-14T12:19:36;8.10;100.00
25438;DHT22;13364;49.084;9.978;2023-12-14T12:22:04;8.10;99.80
25438;DHT22;13364;49.084;9.978;2023-12-14T12:24:31;8.00;100.00
25438;DHT22;13364;49.084;9.978;2023-12-14T12:27:00;7.90;100.00
25438;DHT22;13364;49.084;9.978;2023-12-14T12:29:27;7.90;100.00
25438;DHT22;13364;49.084;9.978;2023-12-14T12:31:54;7.80;100.00
25438;DHT22;13364;49.084;9.978;2023-12-14T12:34:21;7.80;100.00
25438;DHT22;13364;49.084;9.978;2023-12-14T12:36:48;7.70;100.00
25438;DHT22;13364;49.084;9.978;2023-12-14T12:39:15;7.70;100.00
25438;DHT22;13364;49.084;9.978;2023-12-14T12:41:42;7.80;100.00
25438;DHT22;13364;49.084;9.978;2023-12-14T12:44:09;7.70;100.00
25438;DHT22;13364;49.084;9.978;2023-12-14T12:46:36;7.70;100.00
25438;DHT22;13364;49.084;9.978;2023-12-14T12:49:03;7.70;100.00
25438;DHT22;13364;49.084;9.978;2023-12-14T12:51:31;7.60;100.00
25438;DHT22;13364;49.084;9.978;2023-12-14T12:53:59;7.60;100.00
25438;DHT22;13364;49.084;9.978;2023-12-14T12:56:38;7.50;100.00
25438;DHT22;13364;49.084;9.978;2023-12-14T12:59:05;7.30;100.00
25438;DHT22;13364;49.084;9.978;2023-12-14T13:01:35;7.20;100.00
25438;DHT22;13364;49.084;9.978;2023-12-14T13:04:02;7.20;100.00
25438;DHT22;13364;49.084;9.978;2023-12-14T13:06:31;7.10;100.00
25438;DHT22;13364;49.084;9.978;2023-12-14T13:08:57;7.10;100.00
25438;DHT22;13364;49.084;9.978;2023-12-14T13:11:24;7.10;100.00
25438;DHT22;13364;49.084;9.978;2023-12-14T13:13:52;7.10;100.00
25438;DHT22;13364;49.084;9.978;2023-12-14T13:16:19;7.10;100.00
25438;DHT22;13364;49.084;9.978;2023-12-14T13:18:45;7.20;100.00
25438;DHT22;13364;49.084;9.978;2023-12-14T13:21:12;7.20;100.00
25438;DHT22;13364;49.084;9.978;2023-12-14T13:23:39;7.20;100.00
25438;DHT22;13364;49.084;9.978;2023-12-14T13:26:07;7.30;100.00
25438;DHT22;13364;49.084;9.978;2023-12-14T13:28:35;7.30;100.00
25438;DHT22;13364;49.084;9.978;2023-12-14T13:31:02;7.30;100.00
25438;DHT22;13364;49.084;9.978;2023-12-14T13:33:29;7.30;100.00
25438;DHT22;13364;49.084;9.978;2023-12-14T13:35:56;7.20;100.00
25438;DHT22;13364;49.084;9.978;2023-12-14T13:38:23;7.10;100.00
25438;DHT22;13364;49.084;9.978;2023-12-14T13:40:50;7.10;100.00
25438;DHT22;13364;49.084;9.978;2023-12-14T13:43:17;7.10;100.00
25438;DHT22;13364;49.084;9.978;2023-12-14T13:45:44;7.10;100.00
25438;DHT22;13364;49.084;9.978;2023-12-14T13:48:10;7.10;100.00
25438;DHT22;13364;49.084;9.978;2023-12-14T13:50:37;7.10;100.00
25438;DHT22;13364;49.084;9.978;2023-12-14T13:53:04;7.10;100.00
25438;DHT22;13364;49.084;9.978;2023-12-14T13:55:31;7.10;100.00
25438;DHT22;13364;49.084;9.978;2023-12-14T13:57:58;7.10;100.00
25438;DHT22;13364;49.084;9.978;2023-12-14T14:00:27;7.00;100.00
25438;DHT22;13364;49.084;9.978;2023-12-14T14:02:53;6.90;100.00
25438;DHT22;13364;49.084;9.978;2023-12-14T14:05:21;6.90;100.00
25438;DHT22;13364;49.084;9.978;2023-12-14T14:07:48;6.80;100.00
25438;DHT22;13364;49.084;9.978;2023-12-14T14:10:15;6.80;100.00
25438;DHT22;13364;49.084;9.978;2023-12-14T14:12:42;6.80;100.00
25438;DHT22;13364;49.084;9.978;2023-12-14T14:15:09;6.80;100.00
25438;DHT22;13364;49.084;9.978;2023-12-14T14:17:36;6.80;100.00
25438;DHT22;13364;49.084;9.978;2023-12-14T14:20:03;6.80;100.00
25438;DHT22;13364;49.084;9.978;2023-12-14T14:22:31;6.80;100.00
25438;DHT22;13364;49.084;9.978;2023-12-14T14:24:59;6.80;100.00
25438;DHT22;13364;49.084;9.978;2023-12-14T14:27:25;6.70;100.00
25438;DHT22;13364;49.084;9.978;2023-12-14T14:29:52;6.70;100.00
25438;DHT22;13364;49.084;9.978;2023-12-14T14:32:22;6.70;100.00
25438;DHT22;13364;49.084;9.978;2023-12-14T14:34:49;6.70;100.00
25438;DHT22;13364;49.084;9.978;2023-12-14T14:37:15;6.70;100.00
25438;DHT22;13364;49.084;9.978;2023-12-14T14:39:42;6.80;100.00
25438;DHT22;13364;49.084;9.978;2023-12-14T14:42:09;6.70;100.00
25438;DHT22;13364;49.084;9.978;2023-12-14T14:44:36;6.70;100.00
25438;DHT22;13364;49.084;9.978;2023-12-14T14:47:03;6.80;100.00
25438;DHT22;13364;49.084;9.978;2023-12-14T14:49:30;6.80;100.00
25438;DHT22;13364;49.084;9.978;2023-12-14T14:51:57;6.80;100.00
25438;DHT22;13364;49.084;9.978;2023-12-14T14:54:24;6.80;100.00
25438;DHT22;13364;49.084;9.978;2023-12-14T14:56:51;6.80;100.00
25438;DHT22;13364;49.084;9.978;2023-12-14T14:59:17;6.70;100.00
25438;DHT22;13364;49.084;9.978;2023-12-14T15:01:44;6.60;100.00
25438;DHT22;13364;49.084;9.978;2023-12-14T15:04:14;6.50;100.00
25438;DHT22;13364;49.084;9.978;2023-12-14T15:06:41;6.50;100.00
25438;DHT22;13364;49.084;9.978;2023-12-14T15:09:08;6.40;100.00
25438;DHT22;13364;49.084;9.978;2023-12-14T15:11:36;6.40;100.00
25438;DHT22;13364;49.084;9.978;2023-12-14T15:14:02;6.50;100.00
25438;DHT22;13364;49.084;9.978;2023-12-14T15:16:29;6.50;100.00
25438;DHT22;13364;49.084;9.978;2023-12-14T15:18:56;6.50;100.00
25438;DHT22;13364;49.084;9.978;2023-12-14T15:21:23;6.50;100.00
25438;DHT22;13364;49.084;9.978;2023-12-14T15:23:50;6.40;100.00
25438;DHT22;13364;49.084;9.978;2023-12-14T15:26:17;6.30;100.00
25438;DHT22;13364;49.084;9.978;2023-12-14T15:28:44;6.20;100.00
25438;DHT22;13364;49.084;9.978;2023-12-14T15:31:11;6.10;100.00
25438;DHT22;13364;49.084;9.978;2023-12-14T15:33:38;6.00;100.00
25438;DHT22;13364;49.084;9.978;2023-12-14T15:36:05;5.90;100.00
25438;DHT22;13364;49.084;9.978;2023-12-14T15:38:32;6.00;100.00
25438;DHT22;13364;49.084;9.978;2023-12-14T15:40:59;6.00;100.00
25438;DHT22;13364;49.084;9.978;2023-12-14T15:43:25;6.10;100.00
25438;DHT22;13364;49.084;9.978;2023-12-14T15:45:52;6.00;100.00
25438;DHT22;13364;49.084;9.978;2023-12-14T15:48:19;6.00;100.00
25438;DHT22;13364;49.084;9.978;2023-12-14T15:50:46;6.00;100.00
25438;DHT22;13364;49.084;9.978;2023-12-14T15:53:13;6.00;100.00
25438;DHT22;13364;49.084;9.978;2023-12-14T15:55:40;6.00;100.00
25438;DHT22;13364;49.084;9.978;2023-12-14T15:58:07;6.00;100.00
25438;DHT22;13364;49.084;9.978;2023-12-14T16:00:34;6.10;100.00
25438;DHT22;13364;49.084;9.978;2023-12-14T16:03:01;6.10;100.00
25438;DHT22;13364;49.084;9.978;2023-12-14T16:05:28;6.10;100.00
25438;DHT22;13364;49.084;9.978;2023-12-14T16:07:55;6.10;100.00
25438;DHT22;13364;49.084;9.978;2023-12-14T16:10:21;6.20;100.00
25438;DHT22;13364;49.084;9.978;2023-12-14T16:12:48;6.20;100.00
25438;DHT22;13364;49.084;9.978;2023-12-14T16:15:17;6.20;100.00
25438;DHT22;13364;49.084;9.978;2023-12-14T16:17:44;6.20;100.00
25438;DHT22;13364;49.084;9.978;2023-12-14T16:20:11;6.00;100.00
25438;DHT22;13364;49.084;9.978;2023-12-14T16:22:38;5.90;100.00
25438;DHT22;13364;49.084;9.978;2023-12-14T16:25:05;5.90;100.00
25438;DHT22;13364;49.084;9.978;2023-12-14T16:27:32;6.00;100.00
25438;DHT22;13364;49.084;9.978;2023-12-14T16:29:59;6.00;100.00
25438;DHT22;13364;49.084;9.978;2023-12-14T16:32:26;6.00;100.00
25438;DHT22;13364;49.084;9.978;2023-12-14T16:34:54;6.10;100.00
25438;DHT22;13364;49.084;9.978;2023-12-14T16:37:20;6.20;100.00
25438;DHT22;13364;49.084;9.978;2023-12-14T16:39:47;6.10;100.00
25438;DHT22;13364;49.084;9.978;2023-12-14T16:42:14;6.10;100.00
25438;DHT22;13364;49.084;9.978;2023-12-14T16:44:41;6.00;100.00
25438;DHT22;13364;49.084;9.978;2023-12-14T16:47:09;5.90;100.00
25438;DHT22;13364;49.084;9.978;2023-12-14T16:49:38;5.80;100.00
25438;DHT22;13364;49.084;9.978;2023-12-14T16:52:07;5.70;100.00
25438;DHT22;13364;49.084;9.978;2023-12-14T16:54:34;5.60;100.00
25438;DHT22;13364;49.084;9.978;2023-12-14T16:57:01;5.70;100.00
25438;DHT22;13364;49.084;9.978;2023-12-14T16:59:29;5.70;100.00
25438;DHT22;13364;49.084;9.978;2023-12-14T17:01:56;5.80;100.00
25438;DHT22;13364;49.084;9.978;2023-12-14T17:04:23;6.00;100.00
25438;DHT22;13364;49.084;9.978;2023-12-14T17:06:49;6.00;100.00
25438;DHT22;13364;49.084;9.978;2023-12-14T17:09:16;6.10;100.00
25438;DHT22;13364;49.084;9.978;2023-12-14T17:11:43;6.20;100.00
25438;DHT22;13364;49.084;9.978;2023-12-14T17:14:10;6.30;100.00
25438;DHT22;13364;49.084;9.978;2023-12-14T17:16:39;6.30;100.00
25438;DHT22;13364;49.084;9.978;2023-12-14T17:19:06;6.40;100.00
25438;DHT22;13364;49.084;9.978;2023-12-14T17:21:33;6.40;100.00
25438;DHT22;13364;49.084;9.978;2023-12-14T17:23:59;6.40;100.00
25438;DHT22;13364;49.084;9.978;2023-12-14T17:26:27;6.40;100.00
25438;DHT22;13364;49.084;9.978;2023-12-14T17:28:55;6.40;100.00
25438;DHT22;13364;49.084;9.978;2023-12-14T17:31:24;6.40;100.00
25438;DHT22;13364;49.084;9.978;2023-12-14T17:33:51;6.40;100.00
25438;DHT22;13364;49.084;9.978;2023-12-14T17:36:19;6.50;100.00
25438;DHT22;13364;49.084;9.978;2023-12-14T17:38:46;6.50;100.00
25438;DHT22;13364;49.084;9.978;2023-12-14T17:41:13;6.50;100.00
25438;DHT22;13364;49.084;9.978;2023-12-14T17:43:42;6.50;100.00
25438;DHT22;13364;49.084;9.978;2023-12-14T17:46:12;6.50;100.00
25438;DHT22;13364;49.084;9.978;2023-12-14T17:48:41;6.40;100.00
25438;DHT22;13364;49.084;9.978;2023-12-14T17:51:08;6.30;100.00
25438;DHT22;13364;49.084;9.978;2023-12-14T17:53:34;6.10;100.00
25438;DHT22;13364;49.084;9.978;2023-12-14T17:56:01;6.00;100.00
25438;DHT22;13364;49.084;9.978;2023-12-14T17:58:28;5.90;100.00
25438;DHT22;13364;49.084;9.978;2023-12-14T18:00:55;5.80;100.00
25438;DHT22;13364;49.084;9.978;2023-12-14T18:03:22;5.70;100.00
25438;DHT22;13364;49.084;9.978;2023-12-14T18:05:49;5.60;100.00
25438;DHT22;13364;49.084;9.978;2023-12-14T18:08:15;5.60;100.00
25438;DHT22;13364;49.084;9.978;2023-12-14T18:10:42;5.60;100.00
25438;DHT22;13364;49.084;9.978;2023-12-14T18:13:09;5.60;100.00
25438;DHT22;13364;49.084;9.978;2023-12-14T18:15:36;5.50;100.00
25438;DHT22;13364;49.084;9.978;2023-12-14T18:18:03;5.40;100.00
25438;DHT22;13364;49.084;9.978;2023-12-14T18:20:30;5.50;100.00
25438;DHT22;13364;49.084;9.978;2023-12-14T18:22:57;5.50;100.00
25438;DHT22;13364;49.084;9.978;2023-12-14T18:25:23;5.40;100.00
25438;DHT22;13364;49.084;9.978;2023-12-14T18:27:52;5.30;100.00
25438;DHT22;13364;49.084;9.978;2023-12-14T18:30:20;5.30;100.00
25438;DHT22;13364;49.084;9.978;2023-12-14T18:32:47;5.30;100.00
25438;DHT22;13364;49.084;9.978;2023-12-14T18:35:17;5.40;100.00
25438;DHT22;13364;49.084;9.978;2023-12-14T18:37:45;5.40;100.00
25438;DHT22;13364;49.084;9.978;2023-12-14T18:40:13;5.50;100.00
25438;DHT22;13364;49.084;9.978;2023-12-14T18:42:42;5.60;100.00
25438;DHT22;13364;49.084;9.978;2023-12-14T18:45:09;5.60;100.00
25438;DHT22;13364;49.084;9.978;2023-12-14T18:47:36;5.60;100.00
25438;DHT22;13364;49.084;9.978;2023-12-14T18:50:03;5.60;100.00
25438;DHT22;13364;49.084;9.978;2023-12-14T18:52:31;5.70;100.00
25438;DHT22;13364;49.084;9.978;2023-12-14T18:54:58;5.80;100.00
25438;DHT22;13364;49.084;9.978;2023-12-14T18:57:25;5.80;100.00
25438;DHT22;13364;49.084;9.978;2023-12-14T18:59:52;5.80;100.00
25438;DHT22;13364;49.084;9.978;2023-12-14T19:02:19;5.80;100.00
25438;DHT22;13364;49.084;9.978;2023-12-14T19:04:52;5.80;100.00
25438;DHT22;13364;49.084;9.978;2023-12-14T19:07:19;5.80;100.00
25438;DHT22;13364;49.084;9.978;2023-12-14T19:09:47;5.80;100.00
25438;DHT22;13364;49.084;9.978;2023-12-14T19:12:13;5.70;100.00
25438;DHT22;13364;49.084;9.978;2023-12-14T19:14:40;5.70;100.00
25438;DHT22;13364;49.084;9.978;2023-12-14T19:17:07;5.70;100.00
25438;DHT22;13364;49.084;9.978;2023-12-14T19:19:35;5.70;100.00
25438;DHT22;13364;49.084;9.978;2023-12-14T19:22:02;5.80;100.00
25438;DHT22;13364;49.084;9.978;2023-12-14T19:24:28;5.80;100.00
25438;DHT22;13364;49.084;9.978;2023-12-14T19:26:55;5.80;100.00
25438;DHT22;13364;49.084;9.978;2023-12-14T19:29:22;5.80;100.00
25438;DHT22;13364;49.084;9.978;2023-12-14T19:31:49;5.80;100.00
25438;DHT22;13364;49.084;9.978;2023-12-14T19:34:15;5.70;100.00
25438;DHT22;13364;49.084;9.978;2023-12-14T19:36:42;5.60;100.00
25438;DHT22;13364;49.084;9.978;2023-12-14T19:39:09;5.50;100.00
25438;DHT22;13364;49.084;9.978;2023-12-14T19:41:37;5.40;100.00
25438;DHT22;13364;49.084;9.978;2023-12-14T19:44:05;5.40;100.00
25438;DHT22;13364;49.084;9.978;2023-12-14T19:46:32;5.40;100.00
25438;DHT22;13364;49.084;9.978;2023-12-14T19:49:00;5.40;100.00
25438;DHT22;13364;49.084;9.978;2023-12-14T19:51:27;5.30;100.00
25438;DHT22;13364;49.084;9.978;2023-12-14T19:53:54;5.30;100.00
25438;DHT22;13364;49.084;9.978;2023-12-14T19:56:20;5.30;100.00
25438;DHT22;13364;49.084;9.978;2023-12-14T19:58:47;5.30;100.00
25438;DHT22;13364;49.084;9.978;2023-12-14T20:01:14;5.30;100.00
25438;DHT22;13364;49.084;9.978;2023-12-14T20:03:43;5.30;100.00
25438;DHT22;13364;49.084;9.978;2023-12-14T20:06:19;5.30;100.00
25438;DHT22;13364;49.084;9.978;2023-12-14T20:08:46;5.30;100.00
25438;DHT22;13364;49.084;9.978;2023-12-14T20:11:17;5.20;100.00
25438;DHT22;13364;49.084;9.978;2023-12-14T20:13:44;5.20;100.00
25438;DHT22;13364;49.084;9.978;2023-12-14T20:16:11;5.20;100.00
25438;DHT22;13364;49.084;9.978;2023-12-14T20:18:38;5.20;100.00
25438;DHT22;13364;49.084;9.978;2023-12-14T20:21:06;5.20;100.00
25438;DHT22;13364;49.084;9.978;2023-12-14T20:23:33;5.10;100.00
25438;DHT22;13364;49.084;9.978;2023-12-14T20:26:00;5.00;100.00
25438;DHT22;13364;49.084;9.978;2023-12-14T20:28:27;5.00;100.00
25438;DHT22;13364;49.084;9.978;2023-12-14T20:30:54;5.10;100.00
25438;DHT22;13364;49.084;9.978;2023-12-14T20:33:21;5.10;100.00
25438;DHT22;13364;49.084;9.978;2023-12-14T20:35:48;5.10;100.00
25438;DHT22;13364;49.084;9.978;2023-12-14T20:38:14;5.20;100.00